sensor_id;sensor_type;location;lat;lon;timestamp;P1;durP1;ratioP1;P2;durP2;ratioP2
54881;SDS011;40775;51.448;4.742;2023-04-25T00:00:14;3.83;;;1.38;;
54881;SDS011;40775;51.448;4.742;2023-04-25T00:02:42;7.50;;;1.73;;
54881;SDS011;40775;51.448;4.742;2023-04-25T00:05:09;4.35;;;1.63;;
54881;SDS011;40775;51.448;4.742;2023-04-25T00:07:37;5.65;;;1.52;;
54881;SDS011;40775;51.448;4.742;2023-04-25T00:10:04;5.05;;;1.55;;
54881;SDS011;40775;51.448;4.742;2023-04-25T00:12:32;7.28;;;2.08;;
54881;SDS011;40775;51.448;4.742;2023-04-25T00:15:00;5.20;;;1.50;;
54881;SDS011;40775;51.448;4.742;2023-04-25T00:17:27;4.28;;;1.48;;
54881;SDS011;40775;51.448;4.742;2023-04-25T00:19:54;5.13;;;1.83;;
54881;SDS011;40775;51.448;4.742;2023-04-25T00:22:22;3.42;;;1.73;;
54881;SDS011;40775;51.448;4.742;2023-04-25T00:24:49;5.60;;;1.70;;
54881;SDS011;40775;51.448;4.742;2023-04-25T00:27:16;4.82;;;1.45;;
54881;SDS011;40775;51.448;4.742;2023-04-25T00:29:43;4.68;;;1.65;;
54881;SDS011;40775;51.448;4.742;2023-04-25T00:32:10;5.30;;;1.77;;
54881;SDS011;40775;51.448;4.742;2023-04-25T00:34:37;5.93;;;1.65;;
54881;SDS011;40775;51.448;4.742;2023-04-25T00:37:04;7.03;;;1.88;;
54881;SDS011;40775;51.448;4.742;2023-04-25T00:39:32;3.95;;;1.35;;
54881;SDS011;40775;51.448;4.742;2023-04-25T00:41:59;3.53;;;1.45;;
54881;SDS011;40775;51.448;4.742;2023-04-25T00:44:29;2.75;;;1.00;;
54881;SDS011;40775;51.448;4.742;2023-04-25T00:46:58;5.32;;;1.60;;
54881;SDS011;40775;51.448;4.742;2023-04-25T00:49:28;4.82;;;1.95;;
54881;SDS011;40775;51.448;4.742;2023-04-25T00:51:55;5.75;;;1.98;;
54881;SDS011;40775;51.448;4.742;2023-04-25T00:54:23;3.75;;;1.40;;
54881;SDS011;40775;51.448;4.742;2023-04-25T00:56:50;4.50;;;1.50;;
54881;SDS011;40775;51.448;4.742;2023-04-25T00:59:19;4.03;;;1.83;;
54881;SDS011;40775;51.448;4.742;2023-04-25T01:01:46;4.45;;;1.80;;
54881;SDS011;40775;51.448;4.742;2023-04-25T01:04:14;6.00;;;1.75;;
54881;SDS011;40775;51.448;4.742;2023-04-25T01:06:41;3.05;;;1.58;;
54881;SDS011;40775;51.448;4.742;2023-04-25T01:09:08;6.65;;;1.65;;
54881;SDS011;40775;51.448;4.742;2023-04-25T01:11:36;3.80;;;1.75;;
54881;SDS011;40775;51.448;4.742;2023-04-25T01:14:03;4.97;;;1.52;;
54881;SDS011;40775;51.448;4.742;2023-04-25T01:16:30;4.95;;;2.00;;
54881;SDS011;40775;51.448;4.742;2023-04-25T01:18:59;4.85;;;1.58;;
54881;SDS011;40775;51.448;4.742;2023-04-25T01:21:26;5.53;;;1.83;;
54881;SDS011;40775;51.448;4.742;2023-04-25T01:23:55;5.45;;;1.80;;
54881;SDS011;40775;51.448;4.742;2023-04-25T01:26:24;4.40;;;1.80;;
54881;SDS011;40775;51.448;4.742;2023-04-25T01:28:51;5.55;;;1.55;;
54881;SDS011;40775;51.448;4.742;2023-04-25T01:31:18;4.05;;;1.83;;
54881;SDS011;40775;51.448;4.742;2023-04-25T01:33:46;2.92;;;1.38;;
54881;SDS011;40775;51.448;4.742;2023-04-25T01:36:14;3.70;;;1.58;;
54881;SDS011;40775;51.448;4.742;2023-04-25T01:38:42;6.53;;;1.70;;
54881;SDS011;40775;51.448;4.742;2023-04-25T01:41:10;5.20;;;1.95;;
54881;SDS011;40775;51.448;4.742;2023-04-25T01:43:37;6.70;;;1.73;;
54881;SDS011;40775;51.448;4.742;2023-04-25T01:46:04;4.25;;;1.70;;
54881;SDS011;40775;51.448;4.742;2023-04-25T01:48:32;2.95;;;1.48;;
54881;SDS011;40775;51.448;4.742;2023-04-25T01:50:59;4.05;;;1.80;;
54881;SDS011;40775;51.448;4.742;2023-04-25T01:53:26;3.60;;;1.55;;
54881;SDS011;40775;51.448;4.742;2023-04-25T01:55:53;4.78;;;1.40;;
54881;SDS011;40775;51.448;4.742;2023-04-25T01:58:20;8.15;;;1.65;;
54881;SDS011;40775;51.448;4.742;2023-04-25T02:00:47;5.28;;;1.52;;
54881;SDS011;40775;51.448;4.742;2023-04-25T02:03:14;3.17;;;1.45;;
54881;SDS011;40775;51.448;4.742;2023-04-25T02:05:41;4.18;;;1.70;;
54881;SDS011;40775;51.448;4.742;2023-04-25T02:08:09;6.18;;;1.80;;
54881;SDS011;40775;51.448;4.742;2023-04-25T02:10:36;6.25;;;2.05;;
54881;SDS011;40775;51.448;4.742;2023-04-25T02:13:03;7.20;;;1.95;;
54881;SDS011;40775;51.448;4.742;2023-04-25T02:15:31;4.55;;;1.40;;
54881;SDS011;40775;51.448;4.742;2023-04-25T02:17:58;6.05;;;1.65;;
54881;SDS011;40775;51.448;4.742;2023-04-25T02:20:26;4.70;;;1.90;;
54881;SDS011;40775;51.448;4.742;2023-04-25T02:22:55;5.05;;;1.52;;
54881;SDS011;40775;51.448;4.742;2023-04-25T02:25:22;5.35;;;1.50;;
54881;SDS011;40775;51.448;4.742;2023-04-25T02:27:49;3.47;;;1.63;;
54881;SDS011;40775;51.448;4.742;2023-04-25T02:30:17;7.97;;;1.48;;
54881;SDS011;40775;51.448;4.742;2023-04-25T02:32:44;8.95;;;1.80;;
54881;SDS011;40775;51.448;4.742;2023-04-25T02:35:12;4.80;;;1.45;;
54881;SDS011;40775;51.448;4.742;2023-04-25T02:37:39;5.50;;;1.80;;
54881;SDS011;40775;51.448;4.742;2023-04-25T02:40:07;2.67;;;1.10;;
54881;SDS011;40775;51.448;4.742;2023-04-25T02:42:35;3.55;;;1.48;;
54881;SDS011;40775;51.448;4.742;2023-04-25T02:45:02;4.85;;;1.48;;
54881;SDS011;40775;51.448;4.742;2023-04-25T02:47:29;5.43;;;1.80;;
54881;SDS011;40775;51.448;4.742;2023-04-25T02:49:57;7.65;;;2.05;;
54881;SDS011;40775;51.448;4.742;2023-04-25T02:52:24;3.60;;;1.48;;
54881;SDS011;40775;51.448;4.742;2023-04-25T02:54:51;4.65;;;1.48;;
54881;SDS011;40775;51.448;4.742;2023-04-25T02:57:18;7.28;;;1.90;;
54881;SDS011;40775;51.448;4.742;2023-04-25T02:59:45;4.15;;;1.30;;
54881;SDS011;40775;51.448;4.742;2023-04-25T03:02:12;3.55;;;1.60;;
54881;SDS011;40775;51.448;4.742;2023-04-25T03:04:39;3.80;;;1.10;;
54881;SDS011;40775;51.448;4.742;2023-04-25T03:07:06;11.43;;;1.83;;
54881;SDS011;40775;51.448;4.742;2023-04-25T03:09:34;3.92;;;1.58;;
54881;SDS011;40775;51.448;4.742;2023-04-25T03:12:01;5.00;;;1.40;;
54881;SDS011;40775;51.448;4.742;2023-04-25T03:14:28;3.90;;;1.50;;
54881;SDS011;40775;51.448;4.742;2023-04-25T03:16:55;5.10;;;1.77;;
54881;SDS011;40775;51.448;4.742;2023-04-25T03:19:22;3.97;;;1.60;;
54881;SDS011;40775;51.448;4.742;2023-04-25T03:21:49;5.88;;;1.70;;
54881;SDS011;40775;51.448;4.742;2023-04-25T03:24:16;3.85;;;1.70;;
54881;SDS011;40775;51.448;4.742;2023-04-25T03:26:43;6.38;;;2.13;;
54881;SDS011;40775;51.448;4.742;2023-04-25T03:29:11;5.00;;;1.98;;
54881;SDS011;40775;51.448;4.742;2023-04-25T03:31:38;5.88;;;1.48;;
54881;SDS011;40775;51.448;4.742;2023-04-25T03:34:05;3.50;;;1.33;;
54881;SDS011;40775;51.448;4.742;2023-04-25T03:36:32;4.60;;;1.52;;
54881;SDS011;40775;51.448;4.742;2023-04-25T03:38:59;5.88;;;1.30;;
54881;SDS011;40775;51.448;4.742;2023-04-25T03:41:26;4.05;;;1.55;;
54881;SDS011;40775;51.448;4.742;2023-04-25T03:43:53;2.88;;;0.85;;
54881;SDS011;40775;51.448;4.742;2023-04-25T03:46:21;4.65;;;1.33;;
54881;SDS011;40775;51.448;4.742;2023-04-25T03:48:48;3.75;;;1.58;;
54881;SDS011;40775;51.448;4.742;2023-04-25T03:51:15;4.90;;;1.25;;
54881;SDS011;40775;51.448;4.742;2023-04-25T03:53:42;4.88;;;1.63;;
54881;SDS011;40775;51.448;4.742;2023-04-25T03:56:09;3.67;;;1.17;;
54881;SDS011;40775;51.448;4.742;2023-04-25T03:58:36;9.32;;;1.55;;
54881;SDS011;40775;51.448;4.742;2023-04-25T04:01:03;3.85;;;1.70;;
54881;SDS011;40775;51.448;4.742;2023-04-25T04:03:34;5.00;;;1.23;;
54881;SDS011;40775;51.448;4.742;2023-04-25T04:06:05;3.92;;;1.15;;
54881;SDS011;40775;51.448;4.742;2023-04-25T04:08:33;2.95;;;1.30;;
54881;SDS011;40775;51.448;4.742;2023-04-25T04:11:00;4.43;;;1.10;;
54881;SDS011;40775;51.448;4.742;2023-04-25T04:13:28;3.65;;;1.20;;
54881;SDS011;40775;51.448;4.742;2023-04-25T04:15:56;7.38;;;1.27;;
54881;SDS011;40775;51.448;4.742;2023-04-25T04:18:27;3.50;;;1.25;;
54881;SDS011;40775;51.448;4.742;2023-04-25T04:20:54;6.07;;;1.17;;
54881;SDS011;40775;51.448;4.742;2023-04-25T04:23:21;3.00;;;1.25;;
54881;SDS011;40775;51.448;4.742;2023-04-25T04:25:48;4.15;;;1.65;;
54881;SDS011;40775;51.448;4.742;2023-04-25T04:28:16;3.47;;;1.38;;
54881;SDS011;40775;51.448;4.742;2023-04-25T04:30:43;6.60;;;1.65;;
54881;SDS011;40775;51.448;4.742;2023-04-25T04:33:12;4.43;;;1.10;;
54881;SDS011;40775;51.448;4.742;2023-04-25T04:35:42;3.35;;;1.00;;
54881;SDS011;40775;51.448;4.742;2023-04-25T04:38:09;3.35;;;1.27;;
54881;SDS011;40775;51.448;4.742;2023-04-25T04:40:37;2.80;;;1.33;;
54881;SDS011;40775;51.448;4.742;2023-04-25T04:43:05;4.20;;;1.20;;
54881;SDS011;40775;51.448;4.742;2023-04-25T04:45:32;1.80;;;1.05;;
54881;SDS011;40775;51.448;4.742;2023-04-25T04:47:59;4.65;;;1.52;;
54881;SDS011;40775;51.448;4.742;2023-04-25T04:50:27;5.22;;;1.60;;
54881;SDS011;40775;51.448;4.742;2023-04-25T04:52:54;2.90;;;1.40;;
54881;SDS011;40775;51.448;4.742;2023-04-25T04:55:22;3.97;;;1.63;;
54881;SDS011;40775;51.448;4.742;2023-04-25T04:57:49;4.38;;;1.38;;
54881;SDS011;40775;51.448;4.742;2023-04-25T05:00:16;5.25;;;1.25;;
54881;SDS011;40775;51.448;4.742;2023-04-25T05:02:44;4.82;;;1.33;;
54881;SDS011;40775;51.448;4.742;2023-04-25T05:05:14;9.52;;;1.23;;
54881;SDS011;40775;51.448;4.742;2023-04-25T05:07:41;2.65;;;1.08;;
54881;SDS011;40775;51.448;4.742;2023-04-25T05:10:08;5.78;;;1.70;;
54881;SDS011;40775;51.448;4.742;2023-04-25T05:12:36;5.47;;;1.67;;
54881;SDS011;40775;51.448;4.742;2023-04-25T05:15:04;4.45;;;1.58;;
54881;SDS011;40775;51.448;4.742;2023-04-25T05:17:31;5.72;;;1.33;;
54881;SDS011;40775;51.448;4.742;2023-04-25T05:19:59;5.90;;;1.65;;
54881;SDS011;40775;51.448;4.742;2023-04-25T05:22:26;3.72;;;1.33;;
54881;SDS011;40775;51.448;4.742;2023-04-25T05:24:53;3.47;;;1.42;;
54881;SDS011;40775;51.448;4.742;2023-04-25T05:27:21;3.03;;;1.35;;
54881;SDS011;40775;51.448;4.742;2023-04-25T05:29:48;3.63;;;1.30;;
54881;SDS011;40775;51.448;4.742;2023-04-25T05:32:15;5.10;;;1.40;;
54881;SDS011;40775;51.448;4.742;2023-04-25T05:34:42;2.70;;;1.23;;
54881;SDS011;40775;51.448;4.742;2023-04-25T05:37:10;2.58;;;1.20;;
54881;SDS011;40775;51.448;4.742;2023-04-25T05:39:37;3.95;;;1.50;;
54881;SDS011;40775;51.448;4.742;2023-04-25T05:42:04;5.20;;;1.63;;
54881;SDS011;40775;51.448;4.742;2023-04-25T05:44:31;3.70;;;1.25;;
54881;SDS011;40775;51.448;4.742;2023-04-25T05:46:58;7.75;;;2.13;;
54881;SDS011;40775;51.448;4.742;2023-04-25T05:49:25;8.65;;;1.77;;
54881;SDS011;40775;51.448;4.742;2023-04-25T05:51:52;5.63;;;2.25;;
54881;SDS011;40775;51.448;4.742;2023-04-25T05:54:19;9.00;;;3.22;;
54881;SDS011;40775;51.448;4.742;2023-04-25T05:56:46;5.30;;;2.30;;
54881;SDS011;40775;51.448;4.742;2023-04-25T05:59:13;0.88;;;0.28;;
54881;SDS011;40775;51.448;4.742;2023-04-25T06:01:41;0.35;;;0.22;;
54881;SDS011;40775;51.448;4.742;2023-04-25T06:04:08;0.50;;;0.25;;
54881;SDS011;40775;51.448;4.742;2023-04-25T06:06:35;1.00;;;0.30;;
54881;SDS011;40775;51.448;4.742;2023-04-25T06:09:03;0.35;;;0.25;;
54881;SDS011;40775;51.448;4.742;2023-04-25T06:11:30;0.98;;;0.40;;
54881;SDS011;40775;51.448;4.742;2023-04-25T06:13:57;0.80;;;0.35;;
54881;SDS011;40775;51.448;4.742;2023-04-25T06:16:24;0.22;;;0.15;;
54881;SDS011;40775;51.448;4.742;2023-04-25T06:18:52;0.30;;;0.20;;
54881;SDS011;40775;51.448;4.742;2023-04-25T06:21:19;1.15;;;0.50;;
54881;SDS011;40775;51.448;4.742;2023-04-25T06:23:46;0.88;;;0.50;;
54881;SDS011;40775;51.448;4.742;2023-04-25T06:26:14;0.65;;;0.38;;
54881;SDS011;40775;51.448;4.742;2023-04-25T06:28:41;0.70;;;0.38;;
54881;SDS011;40775;51.448;4.742;2023-04-25T06:31:08;1.27;;;0.60;;
54881;SDS011;40775;51.448;4.742;2023-04-25T06:33:36;1.25;;;0.40;;
54881;SDS011;40775;51.448;4.742;2023-04-25T06:36:03;0.32;;;0.25;;
54881;SDS011;40775;51.448;4.742;2023-04-25T06:38:30;1.55;;;0.57;;
54881;SDS011;40775;51.448;4.742;2023-04-25T06:40:57;0.77;;;0.20;;
54881;SDS011;40775;51.448;4.742;2023-04-25T06:43:24;0.32;;;0.25;;
54881;SDS011;40775;51.448;4.742;2023-04-25T06:45:52;0.88;;;0.40;;
54881;SDS011;40775;51.448;4.742;2023-04-25T06:48:19;1.15;;;0.60;;
54881;SDS011;40775;51.448;4.742;2023-04-25T06:50:46;0.20;;;0.20;;
54881;SDS011;40775;51.448;4.742;2023-04-25T06:53:13;2.90;;;0.60;;
54881;SDS011;40775;51.448;4.742;2023-04-25T06:55:40;0.40;;;0.32;;
54881;SDS011;40775;51.448;4.742;2023-04-25T06:58:07;1.08;;;0.20;;
54881;SDS011;40775;51.448;4.742;2023-04-25T07:00:34;0.80;;;0.30;;
54881;SDS011;40775;51.448;4.742;2023-04-25T07:03:02;0.20;;;0.20;;
54881;SDS011;40775;51.448;4.742;2023-04-25T07:05:29;0.38;;;0.25;;
54881;SDS011;40775;51.448;4.742;2023-04-25T07:07:57;2.50;;;0.88;;
54881;SDS011;40775;51.448;4.742;2023-04-25T07:10:24;0.93;;;0.40;;
54881;SDS011;40775;51.448;4.742;2023-04-25T07:12:51;1.52;;;0.40;;
54881;SDS011;40775;51.448;4.742;2023-04-25T07:15:33;1.07;;;0.33;;
54881;SDS011;40775;51.448;4.742;2023-04-25T07:18:00;1.15;;;0.22;;
54881;SDS011;40775;51.448;4.742;2023-04-25T07:20:27;1.75;;;0.45;;
54881;SDS011;40775;51.448;4.742;2023-04-25T07:22:57;2.83;;;0.85;;
54881;SDS011;40775;51.448;4.742;2023-04-25T07:25:24;0.50;;;0.40;;
54881;SDS011;40775;51.448;4.742;2023-04-25T07:27:51;0.73;;;0.32;;
54881;SDS011;40775;51.448;4.742;2023-04-25T07:30:18;0.05;;;0.05;;
54881;SDS011;40775;51.448;4.742;2023-04-25T07:32:45;1.38;;;0.60;;
54881;SDS011;40775;51.448;4.742;2023-04-25T07:35:12;2.90;;;0.93;;
54881;SDS011;40775;51.448;4.742;2023-04-25T07:37:39;1.67;;;0.70;;
54881;SDS011;40775;51.448;4.742;2023-04-25T07:40:06;0.32;;;0.13;;
54881;SDS011;40775;51.448;4.742;2023-04-25T07:42:35;2.08;;;0.30;;
54881;SDS011;40775;51.448;4.742;2023-04-25T07:45:03;2.30;;;0.38;;
54881;SDS011;40775;51.448;4.742;2023-04-25T07:47:30;0.85;;;0.20;;
54881;SDS011;40775;51.448;4.742;2023-04-25T07:49:57;0.30;;;0.30;;
54881;SDS011;40775;51.448;4.742;2023-04-25T07:52:24;1.85;;;0.40;;
54881;SDS011;40775;51.448;4.742;2023-04-25T07:54:51;0.30;;;0.28;;
54881;SDS011;40775;51.448;4.742;2023-04-25T07:57:19;0.98;;;0.40;;
54881;SDS011;40775;51.448;4.742;2023-04-25T07:59:46;0.28;;;0.17;;
54881;SDS011;40775;51.448;4.742;2023-04-25T08:02:13;0.52;;;0.20;;
54881;SDS011;40775;51.448;4.742;2023-04-25T08:04:40;0.88;;;0.22;;
54881;SDS011;40775;51.448;4.742;2023-04-25T08:07:07;1.77;;;0.50;;
54881;SDS011;40775;51.448;4.742;2023-04-25T08:09:35;0.10;;;0.10;;
54881;SDS011;40775;51.448;4.742;2023-04-25T08:12:03;1.83;;;0.70;;
54881;SDS011;40775;51.448;4.742;2023-04-25T08:33:28;1.65;;;0.40;;
54881;SDS011;40775;51.448;4.742;2023-04-25T08:35:55;0.28;;;0.13;;
54881;SDS011;40775;51.448;4.742;2023-04-25T08:38:22;0.20;;;0.20;;
54881;SDS011;40775;51.448;4.742;2023-04-25T08:40:49;1.08;;;0.30;;
54881;SDS011;40775;51.448;4.742;2023-04-25T08:43:20;0.80;;;0.17;;
54881;SDS011;40775;51.448;4.742;2023-04-25T08:45:47;0.25;;;0.17;;
54881;SDS011;40775;51.448;4.742;2023-04-25T08:48:15;4.85;;;1.48;;
54881;SDS011;40775;51.448;4.742;2023-04-25T08:50:45;0.45;;;0.20;;
54881;SDS011;40775;51.448;4.742;2023-04-25T08:53:21;1.23;;;0.57;;
54881;SDS011;40775;51.448;4.742;2023-04-25T08:55:54;2.50;;;0.95;;
54881;SDS011;40775;51.448;4.742;2023-04-25T08:58:23;3.47;;;0.73;;
54881;SDS011;40775;51.448;4.742;2023-04-25T09:00:51;4.20;;;0.93;;
54881;SDS011;40775;51.448;4.742;2023-04-25T09:03:19;3.85;;;1.23;;
54881;SDS011;40775;51.448;4.742;2023-04-25T09:05:46;4.60;;;0.82;;
54881;SDS011;40775;51.448;4.742;2023-04-25T09:08:14;4.20;;;0.32;;
54881;SDS011;40775;51.448;4.742;2023-04-25T09:10:41;1.75;;;0.50;;
54881;SDS011;40775;51.448;4.742;2023-04-25T09:13:14;0.63;;;0.45;;
54881;SDS011;40775;51.448;4.742;2023-04-25T09:15:54;1.20;;;0.40;;
54881;SDS011;40775;51.448;4.742;2023-04-25T09:21:04;3.92;;;0.77;;
54881;SDS011;40775;51.448;4.742;2023-04-25T09:23:40;3.20;;;1.13;;
54881;SDS011;40775;51.448;4.742;2023-04-25T09:26:15;0.85;;;0.08;;
54881;SDS011;40775;51.448;4.742;2023-04-25T09:28:45;0.43;;;0.22;;
54881;SDS011;40775;51.448;4.742;2023-04-25T09:31:23;3.80;;;0.50;;
54881;SDS011;40775;51.448;4.742;2023-04-25T09:33:52;0.50;;;0.30;;
54881;SDS011;40775;51.448;4.742;2023-04-25T09:36:29;0.65;;;0.30;;
54881;SDS011;40775;51.448;4.742;2023-04-25T09:38:57;0.90;;;0.45;;
54881;SDS011;40775;51.448;4.742;2023-04-25T09:41:27;0.57;;;0.38;;
54881;SDS011;40775;51.448;4.742;2023-04-25T09:43:56;2.28;;;0.60;;
54881;SDS011;40775;51.448;4.742;2023-04-25T09:46:32;2.65;;;0.80;;
54881;SDS011;40775;51.448;4.742;2023-04-25T09:49:06;1.67;;;0.45;;
54881;SDS011;40775;51.448;4.742;2023-04-25T09:51:34;0.40;;;0.30;;
54881;SDS011;40775;51.448;4.742;2023-04-25T09:54:01;2.58;;;0.55;;
54881;SDS011;40775;51.448;4.742;2023-04-25T09:56:29;3.17;;;0.90;;
54881;SDS011;40775;51.448;4.742;2023-04-25T09:59:02;1.23;;;0.70;;
54881;SDS011;40775;51.448;4.742;2023-04-25T10:01:29;3.47;;;0.77;;
54881;SDS011;40775;51.448;4.742;2023-04-25T10:03:57;0.90;;;0.55;;
54881;SDS011;40775;51.448;4.742;2023-04-25T10:06:27;0.38;;;0.30;;
54881;SDS011;40775;51.448;4.742;2023-04-25T10:08:55;2.25;;;0.63;;
54881;SDS011;40775;51.448;4.742;2023-04-25T10:11:22;2.53;;;0.98;;
54881;SDS011;40775;51.448;4.742;2023-04-25T10:13:52;0.88;;;0.57;;
54881;SDS011;40775;51.448;4.742;2023-04-25T10:16:19;4.47;;;1.08;;
54881;SDS011;40775;51.448;4.742;2023-04-25T10:18:47;2.65;;;1.33;;
54881;SDS011;40775;51.448;4.742;2023-04-25T10:21:16;5.80;;;0.95;;
54881;SDS011;40775;51.448;4.742;2023-04-25T10:23:46;2.95;;;0.40;;
54881;SDS011;40775;51.448;4.742;2023-04-25T10:26:14;3.55;;;0.57;;
54881;SDS011;40775;51.448;4.742;2023-04-25T10:28:58;1.50;;;0.75;;
54881;SDS011;40775;51.448;4.742;2023-04-25T10:31:29;2.92;;;0.63;;
54881;SDS011;40775;51.448;4.742;2023-04-25T10:33:58;3.92;;;0.98;;
54881;SDS011;40775;51.448;4.742;2023-04-25T10:36:27;2.50;;;0.85;;
54881;SDS011;40775;51.448;4.742;2023-04-25T10:38:58;1.92;;;0.20;;
54881;SDS011;40775;51.448;4.742;2023-04-25T10:41:45;1.58;;;0.95;;
54881;SDS011;40775;51.448;4.742;2023-04-25T10:44:34;0.30;;;0.30;;
54881;SDS011;40775;51.448;4.742;2023-04-25T10:47:02;5.88;;;0.93;;
54881;SDS011;40775;51.448;4.742;2023-04-25T10:52:24;2.00;;;0.63;;
54881;SDS011;40775;51.448;4.742;2023-04-25T10:54:54;1.73;;;0.85;;
54881;SDS011;40775;51.448;4.742;2023-04-25T10:57:29;1.55;;;0.57;;
54881;SDS011;40775;51.448;4.742;2023-04-25T11:00:15;5.93;;;0.80;;
54881;SDS011;40775;51.448;4.742;2023-04-25T11:02:46;0.95;;;0.40;;
54881;SDS011;40775;51.448;4.742;2023-04-25T11:05:35;0.82;;;0.60;;
54881;SDS011;40775;51.448;4.742;2023-04-25T11:08:47;1.67;;;0.57;;
54881;SDS011;40775;51.448;4.742;2023-04-25T11:11:17;3.40;;;1.08;;
54881;SDS011;40775;51.448;4.742;2023-04-25T11:13:48;2.17;;;0.35;;
54881;SDS011;40775;51.448;4.742;2023-04-25T11:16:16;0.75;;;0.40;;
54881;SDS011;40775;51.448;4.742;2023-04-25T11:18:53;1.55;;;0.75;;
54881;SDS011;40775;51.448;4.742;2023-04-25T11:21:22;1.70;;;0.60;;
54881;SDS011;40775;51.448;4.742;2023-04-25T11:23:52;1.05;;;0.40;;
54881;SDS011;40775;51.448;4.742;2023-04-25T11:26:22;0.52;;;0.25;;
54881;SDS011;40775;51.448;4.742;2023-04-25T11:28:51;2.58;;;0.40;;
54881;SDS011;40775;51.448;4.742;2023-04-25T11:31:20;1.02;;;0.38;;
54881;SDS011;40775;51.448;4.742;2023-04-25T11:33:48;1.27;;;0.50;;
54881;SDS011;40775;51.448;4.742;2023-04-25T11:36:16;1.65;;;0.50;;
54881;SDS011;40775;51.448;4.742;2023-04-25T11:38:43;2.47;;;0.52;;
54881;SDS011;40775;51.448;4.742;2023-04-25T11:41:10;1.10;;;0.30;;
54881;SDS011;40775;51.448;4.742;2023-04-25T11:43:38;1.05;;;0.35;;
54881;SDS011;40775;51.448;4.742;2023-04-25T11:46:08;4.85;;;1.00;;
54881;SDS011;40775;51.448;4.742;2023-04-25T11:48:39;0.73;;;0.40;;
54881;SDS011;40775;51.448;4.742;2023-04-25T11:51:09;1.58;;;0.30;;
54881;SDS011;40775;51.448;4.742;2023-04-25T11:53:36;1.60;;;0.25;;
54881;SDS011;40775;51.448;4.742;2023-04-25T11:56:09;1.27;;;0.40;;
54881;SDS011;40775;51.448;4.742;2023-04-25T11:58:59;1.85;;;0.88;;
54881;SDS011;40775;51.448;4.742;2023-04-25T12:01:33;1.38;;;0.43;;
54881;SDS011;40775;51.448;4.742;2023-04-25T12:06:41;0.82;;;0.30;;
54881;SDS011;40775;51.448;4.742;2023-04-25T12:09:10;1.85;;;0.73;;
54881;SDS011;40775;51.448;4.742;2023-04-25T12:11:43;3.05;;;0.55;;
54881;SDS011;40775;51.448;4.742;2023-04-25T12:14:22;3.53;;;0.68;;
54881;SDS011;40775;51.448;4.742;2023-04-25T12:17:00;1.63;;;0.60;;
54881;SDS011;40775;51.448;4.742;2023-04-25T12:19:34;0.88;;;0.40;;
54881;SDS011;40775;51.448;4.742;2023-04-25T12:22:03;1.45;;;1.05;;
54881;SDS011;40775;51.448;4.742;2023-04-25T12:24:49;4.60;;;0.70;;
54881;SDS011;40775;51.448;4.742;2023-04-25T12:27:19;2.92;;;0.45;;
54881;SDS011;40775;51.448;4.742;2023-04-25T12:29:53;2.83;;;0.60;;
54881;SDS011;40775;51.448;4.742;2023-04-25T12:32:22;2.05;;;0.50;;
54881;SDS011;40775;51.448;4.742;2023-04-25T12:34:49;3.67;;;0.40;;
54881;SDS011;40775;51.448;4.742;2023-04-25T12:37:16;3.00;;;0.85;;
54881;SDS011;40775;51.448;4.742;2023-04-25T12:39:43;2.25;;;0.47;;
54881;SDS011;40775;51.448;4.742;2023-04-25T12:42:10;4.88;;;0.85;;
54881;SDS011;40775;51.448;4.742;2023-04-25T12:44:38;1.20;;;0.52;;
54881;SDS011;40775;51.448;4.742;2023-04-25T12:47:06;0.43;;;0.10;;
54881;SDS011;40775;51.448;4.742;2023-04-25T12:49:34;3.25;;;0.43;;
54881;SDS011;40775;51.448;4.742;2023-04-25T12:52:01;4.72;;;0.65;;
54881;SDS011;40775;51.448;4.742;2023-04-25T12:54:28;2.65;;;0.50;;
54881;SDS011;40775;51.448;4.742;2023-04-25T12:56:55;1.00;;;0.50;;
54881;SDS011;40775;51.448;4.742;2023-04-25T12:59:23;0.68;;;0.25;;
54881;SDS011;40775;51.448;4.742;2023-04-25T13:01:50;0.82;;;0.55;;
54881;SDS011;40775;51.448;4.742;2023-04-25T13:04:17;3.42;;;0.60;;
54881;SDS011;40775;51.448;4.742;2023-04-25T13:06:47;2.63;;;0.52;;
54881;SDS011;40775;51.448;4.742;2023-04-25T13:09:15;2.35;;;0.68;;
54881;SDS011;40775;51.448;4.742;2023-04-25T13:11:42;1.40;;;0.50;;
54881;SDS011;40775;51.448;4.742;2023-04-25T13:14:09;0.88;;;0.38;;
54881;SDS011;40775;51.448;4.742;2023-04-25T13:16:36;1.05;;;0.45;;
54881;SDS011;40775;51.448;4.742;2023-04-25T13:19:04;2.85;;;0.80;;
54881;SDS011;40775;51.448;4.742;2023-04-25T13:21:33;1.45;;;0.65;;
54881;SDS011;40775;51.448;4.742;2023-04-25T13:24:00;2.08;;;0.68;;
54881;SDS011;40775;51.448;4.742;2023-04-25T13:26:27;2.25;;;0.60;;
54881;SDS011;40775;51.448;4.742;2023-04-25T13:28:54;0.57;;;0.20;;
54881;SDS011;40775;51.448;4.742;2023-04-25T13:31:21;0.75;;;0.20;;
54881;SDS011;40775;51.448;4.742;2023-04-25T13:33:48;0.47;;;0.30;;
54881;SDS011;40775;51.448;4.742;2023-04-25T13:36:16;1.10;;;0.45;;
54881;SDS011;40775;51.448;4.742;2023-04-25T13:38:43;0.90;;;0.32;;
54881;SDS011;40775;51.448;4.742;2023-04-25T13:41:13;2.70;;;0.60;;
54881;SDS011;40775;51.448;4.742;2023-04-25T13:43:45;4.15;;;0.95;;
54881;SDS011;40775;51.448;4.742;2023-04-25T13:46:14;2.13;;;0.60;;
54881;SDS011;40775;51.448;4.742;2023-04-25T13:49:02;1.70;;;0.70;;
54881;SDS011;40775;51.448;4.742;2023-04-25T13:51:37;1.80;;;0.50;;
54881;SDS011;40775;51.448;4.742;2023-04-25T13:54:04;3.35;;;0.30;;
54881;SDS011;40775;51.448;4.742;2023-04-25T13:56:31;6.28;;;0.90;;
54881;SDS011;40775;51.448;4.742;2023-04-25T13:58:59;2.50;;;0.55;;
54881;SDS011;40775;51.448;4.742;2023-04-25T14:01:26;0.25;;;0.25;;
54881;SDS011;40775;51.448;4.742;2023-04-25T14:03:54;2.47;;;0.63;;
54881;SDS011;40775;51.448;4.742;2023-04-25T14:06:24;1.00;;;0.10;;
54881;SDS011;40775;51.448;4.742;2023-04-25T14:08:51;3.42;;;0.50;;
54881;SDS011;40775;51.448;4.742;2023-04-25T14:11:18;1.25;;;0.55;;
54881;SDS011;40775;51.448;4.742;2023-04-25T14:13:46;0.57;;;0.25;;
54881;SDS011;40775;51.448;4.742;2023-04-25T14:16:16;1.55;;;0.28;;
54881;SDS011;40775;51.448;4.742;2023-04-25T14:18:43;1.70;;;0.50;;
54881;SDS011;40775;51.448;4.742;2023-04-25T14:21:11;1.15;;;0.57;;
54881;SDS011;40775;51.448;4.742;2023-04-25T14:23:38;2.35;;;0.52;;
54881;SDS011;40775;51.448;4.742;2023-04-25T14:26:05;2.05;;;0.55;;
54881;SDS011;40775;51.448;4.742;2023-04-25T14:28:32;1.52;;;0.60;;
54881;SDS011;40775;51.448;4.742;2023-04-25T14:30:59;3.40;;;0.47;;
54881;SDS011;40775;51.448;4.742;2023-04-25T14:33:27;1.60;;;0.47;;
54881;SDS011;40775;51.448;4.742;2023-04-25T14:35:54;2.20;;;0.68;;
54881;SDS011;40775;51.448;4.742;2023-04-25T14:38:21;3.65;;;0.47;;
54881;SDS011;40775;51.448;4.742;2023-04-25T14:40:49;2.05;;;0.75;;
54881;SDS011;40775;51.448;4.742;2023-04-25T14:43:17;0.85;;;0.43;;
54881;SDS011;40775;51.448;4.742;2023-04-25T14:45:44;2.03;;;0.70;;
54881;SDS011;40775;51.448;4.742;2023-04-25T14:48:11;0.70;;;0.55;;
54881;SDS011;40775;51.448;4.742;2023-04-25T14:50:38;0.20;;;0.10;;
54881;SDS011;40775;51.448;4.742;2023-04-25T14:53:06;2.55;;;0.77;;
54881;SDS011;40775;51.448;4.742;2023-04-25T14:55:33;3.50;;;0.52;;
54881;SDS011;40775;51.448;4.742;2023-04-25T14:58:00;0.98;;;0.40;;
54881;SDS011;40775;51.448;4.742;2023-04-25T15:00:27;1.33;;;0.50;;
54881;SDS011;40775;51.448;4.742;2023-04-25T15:02:54;4.20;;;0.80;;
54881;SDS011;40775;51.448;4.742;2023-04-25T15:05:22;2.13;;;0.60;;
54881;SDS011;40775;51.448;4.742;2023-04-25T15:07:49;1.20;;;0.47;;
54881;SDS011;40775;51.448;4.742;2023-04-25T15:10:17;2.17;;;0.65;;
54881;SDS011;40775;51.448;4.742;2023-04-25T15:12:45;1.83;;;0.80;;
54881;SDS011;40775;51.448;4.742;2023-04-25T15:15:13;1.95;;;0.75;;
54881;SDS011;40775;51.448;4.742;2023-04-25T15:17:50;0.80;;;0.38;;
54881;SDS011;40775;51.448;4.742;2023-04-25T15:20:18;1.65;;;0.60;;
54881;SDS011;40775;51.448;4.742;2023-04-25T15:22:45;2.58;;;0.88;;